createdAt,value
2023-05-14T00:01:48.101Z,99.90
2023-05-14T00:04:16.061Z,99.90
2023-05-14T00:06:44.001Z,99.90
2023-05-14T00:09:17.922Z,99.90
2023-05-14T00:11:46.071Z,99.90
2023-05-14T00:14:14.038Z,99.90
2023-05-14T00:16:41.952Z,99.90
2023-05-14T00:19:10.187Z,99.90
2023-05-14T00:21:38.184Z,99.90
2023-05-14T00:24:06.634Z,99.90
2023-05-14T00:26:35.997Z,99.90
2023-05-14T00:29:04.269Z,99.90
2023-05-14T00:31:32.284Z,99.90
2023-05-14T00:34:00.295Z,99.90
2023-05-14T00:36:28.233Z,99.90
2023-05-14T00:38:56.219Z,99.90
2023-05-14T00:41:24.282Z,99.90
2023-05-14T00:43:53.559Z,99.90
2023-05-14T00:46:21.529Z,99.90
2023-05-14T00:48:49.667Z,99.90
2023-05-14T00:51:17.911Z,99.90
2023-05-14T00:53:46.442Z,99.90
2023-05-14T00:56:15.376Z,99.90
2023-05-14T00:58:43.360Z,99.90
2023-05-14T01:01:15.127Z,99.90
2023-05-14T01:03:44.029Z,99.90
2023-05-14T01:06:19.539Z,99.90
2023-05-14T01:08:56.952Z,99.90
2023-05-14T01:11:30.319Z,99.90
2023-05-14T01:14:04.847Z,99.90
2023-05-14T01:16:35.482Z,99.90
2023-05-14T01:19:06.083Z,99.90
2023-05-14T01:21:45.680Z,99.90
2023-05-14T01:24:13.603Z,99.90
2023-05-14T01:26:41.516Z,99.90
2023-05-14T01:29:16.896Z,99.90
2023-05-14T01:31:46.511Z,99.90
2023-05-14T01:34:15.728Z,99.90
2023-05-14T01:36:45.807Z,99.90
2023-05-14T01:39:16.189Z,99.90
2023-05-14T01:41:45.063Z,99.90
2023-05-14T01:44:13.714Z,99.90
2023-05-14T01:46:43.821Z,99.90
2023-05-14T01:49:11.748Z,99.90
2023-05-14T01:51:39.714Z,99.90
2023-05-14T01:54:09.082Z,99.90
2023-05-14T01:56:37.007Z,99.90
2023-05-14T01:59:04.952Z,99.90
2023-05-14T02:01:33.875Z,99.90
2023-05-14T02:04:02.031Z,99.90
2023-05-14T02:06:29.951Z,99.90
2023-05-14T02:08:57.926Z,99.90
2023-05-14T02:11:27.252Z,99.90
2023-05-14T02:13:55.167Z,99.90
2023-05-14T02:16:23.136Z,99.90
2023-05-14T02:18:51.289Z,99.90
2023-05-14T02:21:19.260Z,99.90
2023-05-14T02:23:48.484Z,99.90
2023-05-14T02:26:16.554Z,99.90
2023-05-14T02:28:45.923Z,99.90
2023-05-14T02:31:14.380Z,99.90
2023-05-14T02:33:42.470Z,99.90
2023-05-14T02:36:10.512Z,99.90
2023-05-14T02:38:38.512Z,99.90
2023-05-14T02:41:06.780Z,99.90
2023-05-14T02:43:34.722Z,99.90
2023-05-14T02:46:04.033Z,99.90
2023-05-14T02:48:32.028Z,99.90
2023-05-14T02:50:59.957Z,99.90
2023-05-14T02:53:27.900Z,99.90
2023-05-14T02:55:55.955Z,99.90
2023-05-14T02:58:25.386Z,99.90
2023-05-14T03:00:56.426Z,99.90
2023-05-14T03:03:26.279Z,99.90
2023-05-14T03:05:54.806Z,99.90
2023-05-14T03:08:22.808Z,99.90
2023-05-14T03:10:50.768Z,99.90
2023-05-14T03:13:20.598Z,99.90
2023-05-14T03:15:54.559Z,99.90
2023-05-14T03:18:22.496Z,99.90
2023-05-14T03:20:52.761Z,99.90
2023-05-14T03:23:20.935Z,99.90
2023-05-14T03:25:48.867Z,99.90
2023-05-14T03:28:16.875Z,99.90
2023-05-14T03:30:44.870Z,99.90
2023-05-14T03:33:13.383Z,99.90
2023-05-14T03:35:41.323Z,99.90
2023-05-14T03:38:10.617Z,99.90
2023-05-14T03:40:38.528Z,99.90
2023-05-14T03:43:06.487Z,99.90
2023-05-14T03:45:34.586Z,99.90
2023-05-14T03:48:02.672Z,99.90
2023-05-14T03:50:30.775Z,99.90
2023-05-14T03:52:58.699Z,99.90
2023-05-14T03:55:27.978Z,99.90
2023-05-14T03:57:55.952Z,99.90
2023-05-14T04:00:24.184Z,99.90
2023-05-14T04:02:52.557Z,99.90
2023-05-14T04:05:20.764Z,99.90
2023-05-14T04:07:48.699Z,99.90
2023-05-14T04:10:16.998Z,99.90
2023-05-14T04:12:46.281Z,99.90
2023-05-14T04:15:14.243Z,99.90
2023-05-14T04:17:42.207Z,99.90
2023-05-14T04:20:11.200Z,99.90
2023-05-14T04:22:39.170Z,99.90
2023-05-14T04:25:08.024Z,99.90
2023-05-14T04:27:36.001Z,99.90
2023-05-14T04:30:06.510Z,99.90
2023-05-14T04:32:34.435Z,99.90
2023-05-14T04:35:02.419Z,99.90
2023-05-14T04:37:30.850Z,99.90
2023-05-14T04:39:58.846Z,99.90
2023-05-14T04:42:26.845Z,99.90
2023-05-14T04:44:54.797Z,99.90
2023-05-14T04:47:24.110Z,99.90
2023-05-14T04:49:52.125Z,99.90
2023-05-14T04:52:20.055Z,99.90
2023-05-14T04:54:48.051Z,99.90
2023-05-14T04:57:16.035Z,99.90
2023-05-14T04:59:44.031Z,99.90
2023-05-14T05:02:11.997Z,99.90
2023-05-14T05:04:41.422Z,99.90
2023-05-14T05:07:09.364Z,99.90
2023-05-14T05:09:37.274Z,99.90
2023-05-14T05:12:05.679Z,99.90
2023-05-14T05:14:33.710Z,99.90
2023-05-14T05:17:01.633Z,99.90
2023-05-14T05:19:42.525Z,99.90
2023-05-14T05:22:13.309Z,99.90
2023-05-14T05:24:41.421Z,99.90
2023-05-14T05:27:09.488Z,99.90
2023-05-14T05:29:38.092Z,99.90
2023-05-14T05:32:06.959Z,99.90
2023-05-14T05:34:35.726Z,99.90
2023-05-14T05:37:03.673Z,99.90
2023-05-14T05:39:35.004Z,99.90
2023-05-14T05:42:03.339Z,99.90
2023-05-14T05:44:31.303Z,99.90
2023-05-14T05:46:59.398Z,99.90
2023-05-14T05:49:27.463Z,99.90
2023-05-14T05:51:55.407Z,99.90
2023-05-14T05:54:24.768Z,99.90
2023-05-14T05:56:54.129Z,99.90
2023-05-14T05:59:22.043Z,99.90
2023-05-14T06:01:49.995Z,99.90
2023-05-14T06:04:17.969Z,99.90
2023-05-14T06:06:45.897Z,99.90
2023-05-14T06:09:14.192Z,99.90
2023-05-14T06:11:42.101Z,99.90
2023-05-14T06:14:11.420Z,99.90
2023-05-14T06:16:39.439Z,99.90
2023-05-14T06:19:08.378Z,99.90
2023-05-14T06:21:36.458Z,99.90
2023-05-14T06:24:04.554Z,99.90
2023-05-14T06:26:32.497Z,99.90
2023-05-14T06:29:00.396Z,99.90
2023-05-14T06:31:29.792Z,99.90
2023-05-14T06:33:57.746Z,99.90
2023-05-14T06:36:25.673Z,99.90
2023-05-14T06:38:53.565Z,99.90
2023-05-14T06:41:21.498Z,99.90
2023-05-14T06:43:49.467Z,99.90
2023-05-14T06:46:17.447Z,99.90
2023-05-14T06:48:46.791Z,99.90
2023-05-14T06:51:14.694Z,99.90
2023-05-14T06:53:42.636Z,99.90
2023-05-14T06:56:10.898Z,99.90
2023-05-14T06:58:38.855Z,99.90
2023-05-14T07:01:09.408Z,99.90
2023-05-14T07:03:37.413Z,99.90
2023-05-14T07:06:07.765Z,99.90
2023-05-14T07:08:36.034Z,99.90
2023-05-14T07:11:04.193Z,99.90
2023-05-14T07:13:32.180Z,99.90
2023-05-14T07:16:00.439Z,99.90
2023-05-14T07:18:28.736Z,99.90
2023-05-14T07:20:56.730Z,99.90
2023-05-14T07:23:26.016Z,99.90
2023-05-14T07:25:54.069Z,99.90
2023-05-14T07:28:22.008Z,99.90
2023-05-14T07:30:49.921Z,99.90
2023-05-14T07:33:17.860Z,99.90
2023-05-14T07:35:46.133Z,99.90
2023-05-14T07:38:14.128Z,99.90
2023-05-14T07:40:43.456Z,99.90
2023-05-14T07:43:11.776Z,99.90
2023-05-14T07:45:39.872Z,99.90
2023-05-14T07:48:08.009Z,99.90
2023-05-14T07:50:36.073Z,99.90
2023-05-14T07:53:04.054Z,99.90
2023-05-14T07:55:32.027Z,99.90
2023-05-14T07:58:01.408Z,99.90
2023-05-14T08:00:30.972Z,99.90
2023-05-14T08:02:59.040Z,99.90
2023-05-14T08:05:27.530Z,99.90
2023-05-14T08:07:55.481Z,99.90
2023-05-14T08:10:23.732Z,99.90
2023-05-14T08:12:51.886Z,99.90
2023-05-14T08:15:21.393Z,99.90
2023-05-14T08:17:49.399Z,99.90
2023-05-14T08:20:17.612Z,99.90
2023-05-14T08:22:45.532Z,99.90
2023-05-14T08:25:13.610Z,99.90
2023-05-14T08:27:41.605Z,99.90
2023-05-14T08:30:10.122Z,99.90
2023-05-14T08:32:39.546Z,99.90
2023-05-14T08:35:12.762Z,99.90
2023-05-14T08:37:40.765Z,99.90
2023-05-14T08:40:10.382Z,99.90
2023-05-14T08:42:41.514Z,99.90
2023-05-14T08:45:15.000Z,99.90
2023-05-14T08:47:45.700Z,99.90
2023-05-14T08:50:13.672Z,99.90
2023-05-14T08:52:41.761Z,99.90
2023-05-14T08:55:10.747Z,99.90
2023-05-14T08:57:38.830Z,99.90
2023-05-14T09:00:11.635Z,99.90
2023-05-14T09:02:41.084Z,99.90
2023-05-14T09:05:11.543Z,99.90
2023-05-14T09:07:39.931Z,99.00
2023-05-14T09:10:09.971Z,90.00
2023-05-14T09:12:37.948Z,90.20
2023-05-14T09:15:07.165Z,90.20
2023-05-14T09:17:35.624Z,86.90
2023-05-14T09:20:04.485Z,77.40
2023-05-14T09:22:33.852Z,82.30
2023-05-14T09:25:06.403Z,68.90
2023-05-14T09:27:35.195Z,71.00
2023-05-14T09:30:08.701Z,79.20
2023-05-14T09:32:38.277Z,64.00
2023-05-14T09:35:19.695Z,63.10
2023-05-14T09:37:50.706Z,57.80
2023-05-14T09:40:20.824Z,65.50
2023-05-14T09:42:49.287Z,57.40
2023-05-14T09:45:17.963Z,60.50
2023-05-14T09:47:46.110Z,61.40
2023-05-14T09:50:14.196Z,61.10
2023-05-14T09:52:42.160Z,65.60
2023-05-14T09:55:11.721Z,70.60
2023-05-14T09:57:39.759Z,67.20
2023-05-14T10:00:10.217Z,64.00
2023-05-14T10:02:41.289Z,55.50
2023-05-14T10:05:13.195Z,54.90
2023-05-14T10:07:44.119Z,56.60
2023-05-14T10:10:17.469Z,56.40
2023-05-14T10:12:52.414Z,52.20
2023-05-14T10:15:24.155Z,52.10
2023-05-14T10:17:57.514Z,50.00
2023-05-14T10:20:27.891Z,51.70
2023-05-14T10:22:56.480Z,50.80
2023-05-14T10:25:26.343Z,49.20
2023-05-14T10:27:55.040Z,49.40
2023-05-14T10:30:24.069Z,48.80
2023-05-14T10:33:07.353Z,47.90
2023-05-14T10:35:53.078Z,51.50
2023-05-14T10:38:24.302Z,52.70
2023-05-14T10:40:57.689Z,54.00
2023-05-14T10:43:28.020Z,54.00
2023-05-14T10:45:56.891Z,55.20
2023-05-14T10:48:25.313Z,58.00
2023-05-14T10:50:53.682Z,59.00
2023-05-14T10:53:22.365Z,62.30
2023-05-14T10:55:50.352Z,56.40
2023-05-14T10:58:19.639Z,57.50
2023-05-14T11:00:49.850Z,53.70
2023-05-14T11:03:19.222Z,52.00
2023-05-14T11:05:47.829Z,51.60
2023-05-14T11:08:15.881Z,53.10
2023-05-14T11:10:44.261Z,53.10
2023-05-14T11:13:13.133Z,50.40
2023-05-14T11:15:47.049Z,50.10
2023-05-14T11:18:15.221Z,55.60
2023-05-14T11:20:43.184Z,51.80
2023-05-14T11:23:11.200Z,49.90
2023-05-14T11:25:39.204Z,48.50
2023-05-14T11:28:07.143Z,48.40
2023-05-14T11:30:35.933Z,47.90
2023-05-14T11:33:06.729Z,47.00
2023-05-14T11:35:34.678Z,46.90
2023-05-14T11:38:02.613Z,49.50
2023-05-14T11:40:30.616Z,47.00
2023-05-14T11:42:58.640Z,47.80
2023-05-14T11:45:27.279Z,48.60
2023-05-14T11:47:55.291Z,46.90
2023-05-14T11:50:24.932Z,46.50
2023-05-14T11:52:57.975Z,44.90
2023-05-14T11:55:26.037Z,45.50
2023-05-14T11:57:54.039Z,47.70
2023-05-14T12:00:23.150Z,45.40
2023-05-14T12:02:51.351Z,46.00
2023-05-14T12:05:20.345Z,44.50
2023-05-14T12:07:49.702Z,41.30
2023-05-14T12:10:17.614Z,41.40
2023-05-14T12:12:47.911Z,40.60
2023-05-14T12:15:17.123Z,41.20
2023-05-14T12:17:51.630Z,42.30
2023-05-14T12:20:21.947Z,43.00
2023-05-14T12:22:51.447Z,42.20
2023-05-14T12:25:19.530Z,42.50
2023-05-14T12:27:47.489Z,42.90
2023-05-14T12:32:46.468Z,42.70
2023-05-14T12:35:17.557Z,47.10
2023-05-14T12:37:45.518Z,44.90
2023-05-14T12:40:15.241Z,46.90
2023-05-14T12:42:43.163Z,46.00
2023-05-14T12:45:14.550Z,44.00
2023-05-14T12:47:42.547Z,39.40
2023-05-14T12:50:11.147Z,37.80
2023-05-14T12:52:39.893Z,38.30
2023-05-14T12:55:09.143Z,37.60
2023-05-14T12:57:39.337Z,38.40
2023-05-14T13:00:13.013Z,39.40
2023-05-14T13:02:49.420Z,39.40
2023-05-14T13:05:17.444Z,39.00
2023-05-14T13:07:45.358Z,36.70
2023-05-14T13:10:13.338Z,37.90
2023-05-14T13:12:42.614Z,36.00
2023-05-14T13:15:11.714Z,38.80
2023-05-14T13:17:41.207Z,38.40
2023-05-14T13:20:10.079Z,39.10
2023-05-14T13:22:38.102Z,39.00
2023-05-14T13:25:06.949Z,36.60
2023-05-14T13:27:35.788Z,36.90
2023-05-14T13:30:05.535Z,35.20
2023-05-14T13:32:33.541Z,35.60
2023-05-14T13:35:01.524Z,36.30
2023-05-14T13:37:29.712Z,37.80
2023-05-14T13:39:57.712Z,37.40
2023-05-14T13:42:25.634Z,38.50
2023-05-14T13:44:53.643Z,40.50
2023-05-14T13:47:22.933Z,43.10
2023-05-14T13:49:51.019Z,45.70
2023-05-14T13:52:18.906Z,49.80
2023-05-14T13:54:46.867Z,53.50
2023-05-14T13:57:14.985Z,52.00
2023-05-14T13:59:43.128Z,51.60
2023-05-14T14:02:11.117Z,48.60
2023-05-14T14:04:43.279Z,44.70
2023-05-14T14:07:11.254Z,49.80
2023-05-14T14:09:39.215Z,48.60
2023-05-14T14:12:07.901Z,47.50
2023-05-14T14:14:35.849Z,46.50
2023-05-14T14:17:03.757Z,45.40
2023-05-14T14:19:31.759Z,47.40
2023-05-14T14:22:01.146Z,46.00
2023-05-14T14:24:29.126Z,44.80
2023-05-14T14:26:57.100Z,45.90
2023-05-14T14:29:25.023Z,45.40
2023-05-14T14:31:52.979Z,49.00
2023-05-14T14:34:20.956Z,48.10
2023-05-14T14:36:48.933Z,49.10
2023-05-14T14:39:18.244Z,46.40
2023-05-14T14:41:47.553Z,46.80
2023-05-14T14:44:15.505Z,49.00
2023-05-14T14:46:43.839Z,49.00
2023-05-14T14:49:11.771Z,50.20
2023-05-14T14:51:39.852Z,49.50
2023-05-14T14:54:07.794Z,47.20
2023-05-14T14:56:37.065Z,46.10
2023-05-14T14:59:05.000Z,46.90
2023-05-14T15:01:33.386Z,47.30
2023-05-14T15:04:01.907Z,46.00
2023-05-14T15:06:29.914Z,46.00
2023-05-14T15:08:57.894Z,45.80
2023-05-14T15:11:25.989Z,46.40
2023-05-14T15:13:55.242Z,47.20
2023-05-14T15:16:23.262Z,42.80
2023-05-14T15:18:51.269Z,43.50
2023-05-14T15:21:19.341Z,43.70
2023-05-14T15:23:47.510Z,43.90
2023-05-14T15:26:15.621Z,41.30
2023-05-14T15:28:43.825Z,41.70
2023-05-14T15:31:13.196Z,41.00
2023-05-14T15:33:41.701Z,39.70
2023-05-14T15:36:10.024Z,39.90
2023-05-14T15:38:37.989Z,39.40
2023-05-14T15:41:06.323Z,41.00
2023-05-14T15:43:34.251Z,41.70
2023-05-14T15:46:02.383Z,41.30
2023-05-14T15:48:31.732Z,39.90
2023-05-14T15:50:59.839Z,40.10
2023-05-14T15:53:27.815Z,40.80
2023-05-14T15:55:56.382Z,38.50
2023-05-14T15:58:24.303Z,39.60
2023-05-14T16:00:52.231Z,39.40
2023-05-14T16:03:20.245Z,39.50
2023-05-14T16:05:49.629Z,37.00
2023-05-14T16:08:17.576Z,38.00
2023-05-14T16:10:45.499Z,37.70
2023-05-14T16:13:13.459Z,38.10
2023-05-14T16:15:41.493Z,37.30
2023-05-14T16:18:09.460Z,39.60
2023-05-14T16:20:37.467Z,40.10
2023-05-14T16:23:06.807Z,39.90
2023-05-14T16:25:34.799Z,38.50
2023-05-14T16:28:04.814Z,38.50
2023-05-14T16:30:32.951Z,38.20
2023-05-14T16:33:00.978Z,36.00
2023-05-14T16:35:29.079Z,37.00
2023-05-14T16:37:57.399Z,37.30
2023-05-14T16:40:26.829Z,39.00
2023-05-14T16:42:54.834Z,41.50
2023-05-14T16:45:22.978Z,41.10
2023-05-14T16:47:51.177Z,42.00
2023-05-14T16:50:19.345Z,41.90
2023-05-14T16:52:47.261Z,41.30
2023-05-14T16:55:15.460Z,41.50
2023-05-14T16:57:44.785Z,40.70
2023-05-14T17:00:13.932Z,40.30
2023-05-14T17:02:41.979Z,41.30
2023-05-14T17:05:10.707Z,40.30
2023-05-14T17:07:39.493Z,41.80
2023-05-14T17:10:08.462Z,43.50
2023-05-14T17:12:37.667Z,44.20
2023-05-14T17:15:08.644Z,45.20
2023-05-14T17:17:36.719Z,45.30
2023-05-14T17:20:06.215Z,45.20
2023-05-14T17:22:34.212Z,46.40
2023-05-14T17:25:02.191Z,46.30
2023-05-14T17:27:33.178Z,48.10
2023-05-14T17:30:01.475Z,49.50
2023-05-14T17:32:31.189Z,48.40
2023-05-14T17:35:02.715Z,47.40
2023-05-14T17:37:30.701Z,46.40
2023-05-14T17:39:58.732Z,46.50
2023-05-14T17:42:26.797Z,46.90
2023-05-14T17:44:54.832Z,47.60
2023-05-14T17:47:22.843Z,49.80
2023-05-14T17:49:52.170Z,51.90
2023-05-14T17:52:20.191Z,51.90
2023-05-14T17:54:48.157Z,54.40
2023-05-14T17:57:16.209Z,56.20
2023-05-14T17:59:44.161Z,59.20
2023-05-14T18:02:12.141Z,63.10
2023-05-14T18:04:40.202Z,65.50
2023-05-14T18:07:09.595Z,70.90
2023-05-14T18:09:37.517Z,72.50
2023-05-14T18:12:05.990Z,75.10
2023-05-14T18:14:33.935Z,75.50
2023-05-14T18:17:01.998Z,73.90
2023-05-14T18:19:30.165Z,76.30
2023-05-14T18:21:58.179Z,78.00
2023-05-14T18:24:27.536Z,90.80
2023-05-14T18:26:55.993Z,84.40
2023-05-14T18:29:23.920Z,90.00
2023-05-14T18:31:51.909Z,92.00
2023-05-14T18:34:19.878Z,94.60
2023-05-14T18:36:47.937Z,94.40
2023-05-14T18:39:15.991Z,97.50
2023-05-14T18:41:45.308Z,99.90
2023-05-14T18:44:13.234Z,99.90
2023-05-14T18:46:41.304Z,99.90
2023-05-14T18:49:09.271Z,99.90
2023-05-14T18:51:37.190Z,99.90
2023-05-14T18:54:05.332Z,99.90
2023-05-14T18:56:33.336Z,99.90
2023-05-14T18:59:02.673Z,99.90
2023-05-14T19:01:31.297Z,99.90
2023-05-14T19:03:59.345Z,99.90
2023-05-14T19:06:27.320Z,99.90
2023-05-14T19:08:55.721Z,99.90
2023-05-14T19:11:23.657Z,99.90
2023-05-14T19:13:51.594Z,99.90
2023-05-14T19:16:21.274Z,99.90
2023-05-14T19:18:49.320Z,99.90
2023-05-14T19:21:19.589Z,99.90
2023-05-14T19:23:47.560Z,99.90
2023-05-14T19:26:15.854Z,99.90
2023-05-14T19:28:43.814Z,99.90
2023-05-14T19:31:12.019Z,99.90
2023-05-14T19:33:41.387Z,99.90
2023-05-14T19:36:09.523Z,99.90
2023-05-14T19:38:37.529Z,99.90
2023-05-14T19:41:05.500Z,99.90
2023-05-14T19:43:33.469Z,99.90
2023-05-14T19:46:01.773Z,99.90
2023-05-14T19:48:31.112Z,99.90
2023-05-14T19:51:00.575Z,99.90
2023-05-14T19:53:30.473Z,99.90
2023-05-14T19:55:58.605Z,99.90
2023-05-14T19:58:26.950Z,99.90
2023-05-14T20:00:57.574Z,99.90
2023-05-14T20:03:26.562Z,99.90
2023-05-14T20:05:54.922Z,99.90
2023-05-14T20:08:24.869Z,99.90
2023-05-14T20:10:52.804Z,99.90
2023-05-14T20:13:21.822Z,99.90
2023-05-14T20:15:51.200Z,99.90
2023-05-14T20:18:19.132Z,99.90
2023-05-14T20:20:47.067Z,99.90
2023-05-14T20:23:15.012Z,99.90
2023-05-14T20:25:44.806Z,99.90
2023-05-14T20:28:12.754Z,99.90
2023-05-14T20:30:41.080Z,99.90
2023-05-14T20:33:09.224Z,99.90
2023-05-14T20:35:37.269Z,99.90
2023-05-14T20:38:05.260Z,99.90
2023-05-14T20:40:33.187Z,99.90
2023-05-14T20:43:02.710Z,99.90
2023-05-14T20:45:31.824Z,99.90
2023-05-14T20:47:59.822Z,99.90
2023-05-14T20:50:28.089Z,99.90
2023-05-14T20:52:56.713Z,99.90
2023-05-14T20:55:24.856Z,99.90
2023-05-14T20:57:52.899Z,99.90
2023-05-14T21:00:22.594Z,99.90
2023-05-14T21:02:50.691Z,99.90
2023-05-14T21:05:19.127Z,99.90
2023-05-14T21:07:47.110Z,99.90
2023-05-14T21:10:15.051Z,99.90
2023-05-14T21:12:44.717Z,99.90
2023-05-14T21:15:13.178Z,99.90
2023-05-14T21:17:42.634Z,99.90
2023-05-14T21:20:13.317Z,99.90
2023-05-14T21:22:41.271Z,99.90
2023-05-14T21:25:09.928Z,99.90
2023-05-14T21:27:38.096Z,99.90
2023-05-14T21:30:07.228Z,99.90
2023-05-14T21:32:35.326Z,99.90
2023-05-14T21:35:05.358Z,99.90
2023-05-14T21:37:33.683Z,99.90
2023-05-14T21:40:01.574Z,99.90
2023-05-14T21:42:29.519Z,99.90
2023-05-14T21:44:57.505Z,99.90
2023-05-14T21:47:25.745Z,99.90
2023-05-14T21:49:53.732Z,99.90
2023-05-14T21:52:23.073Z,99.90
2023-05-14T21:54:51.041Z,99.90
2023-05-14T21:57:19.120Z,99.90
2023-05-14T21:59:47.024Z,99.90
2023-05-14T22:02:15.020Z,99.90
2023-05-14T22:04:43.050Z,99.90
2023-05-14T22:07:10.997Z,99.90
2023-05-14T22:09:40.617Z,99.90
2023-05-14T22:12:09.099Z,99.90
2023-05-14T22:14:37.058Z,99.90
2023-05-14T22:17:05.675Z,99.90
2023-05-14T22:19:33.604Z,99.90
2023-05-14T22:22:01.569Z,99.90
2023-05-14T22:24:29.504Z,99.90
2023-05-14T22:27:01.318Z,99.90
2023-05-14T22:29:29.304Z,99.90
2023-05-14T22:31:57.269Z,99.90
2023-05-14T22:34:25.325Z,99.90
2023-05-14T22:36:53.283Z,99.90
2023-05-14T22:39:21.457Z,99.90
2023-05-14T22:41:54.815Z,99.90
2023-05-14T22:44:24.644Z,99.90
2023-05-14T22:46:52.802Z,99.90
2023-05-14T22:49:20.777Z,99.90
2023-05-14T22:51:48.696Z,99.90
2023-05-14T22:54:17.568Z,99.90
2023-05-14T22:56:45.596Z,99.90
2023-05-14T22:59:13.567Z,99.90
2023-05-14T23:01:43.024Z,99.90
2023-05-14T23:04:11.071Z,99.90
2023-05-14T23:06:39.088Z,99.90
2023-05-14T23:09:07.032Z,99.90
2023-05-14T23:11:34.951Z,99.90
2023-05-14T23:14:02.865Z,99.90
2023-05-14T23:16:31.784Z,99.90
2023-05-14T23:19:01.290Z,99.90
2023-05-14T23:21:29.340Z,99.90
2023-05-14T23:23:57.231Z,99.90
2023-05-14T23:26:25.603Z,99.90
2023-05-14T23:28:53.537Z,99.90
2023-05-14T23:31:22.166Z,99.90
2023-05-14T23:33:50.187Z,99.90
2023-05-14T23:36:19.550Z,99.90
2023-05-14T23:38:47.632Z,99.90
2023-05-14T23:41:15.650Z,99.90
2023-05-14T23:43:43.624Z,99.90
2023-05-14T23:46:11.715Z,99.90
2023-05-14T23:48:39.706Z,99.90
2023-05-14T23:51:07.662Z,99.90
2023-05-14T23:53:37.320Z,99.90
2023-05-14T23:56:05.570Z,99.90
2023-05-14T23:58:33.682Z,99.90
